Time,TemperatureF,DewpointF,PressureIn,WindDirection,WindDirectionDegrees,WindSpeedMPH,WindSpeedGustMPH,Humidity,HourlyPrecipIn,Conditions,Clouds,dailyrainin,SoftwareType,DateUTC
2013-05-24 00:03:00,61.0,60.0,29.73,SW,220,0.0,0.0,95,0.17,,,0.41,,2013-05-24 04:03:00,
2013-05-24 00:12:00,61.0,60.0,29.73,SW,220,0.0,0.0,95,0.17,,,0.41,,2013-05-24 04:12:00,
2013-05-24 00:23:00,61.0,60.0,29.73,SW,220,0.0,0.0,95,0.09,,,0.41,,2013-05-24 04:23:00,
2013-05-24 00:33:00,61.0,60.0,29.73,SW,219,0.0,0.0,95,0.06,,,0.41,,2013-05-24 04:33:00,
2013-05-24 00:42:00,61.0,60.0,29.73,SW,219,0.0,0.0,95,0.06,,,0.41,,2013-05-24 04:42:00,
2013-05-24 00:53:00,61.0,60.0,29.73,SW,219,0.0,1.0,96,0.00,,,0.41,,2013-05-24 04:53:00,
2013-05-24 01:02:00,61.0,60.0,29.72,SW,220,0.0,0.0,96,0.00,,,0.41,,2013-05-24 05:02:00,
2013-05-24 01:12:00,61.0,60.0,29.72,SW,220,0.0,0.0,96,0.00,,,0.41,,2013-05-24 05:12:00,
2013-05-24 01:22:00,60.0,59.0,29.72,SW,220,0.0,1.0,96,0.00,,,0.41,,2013-05-24 05:22:00,
2013-05-24 01:32:00,60.0,59.0,29.72,SW,220,0.0,0.0,96,0.00,,,0.41,,2013-05-24 05:32:00,
2013-05-24 01:42:00,60.0,59.0,29.72,SW,220,0.0,0.0,96,0.00,,,0.41,,2013-05-24 05:42:00,
2013-05-24 01:52:00,60.0,59.0,29.71,SW,220,0.0,0.0,96,0.00,,,0.41,,2013-05-24 05:52:00,
2013-05-24 02:02:00,60.0,59.0,29.71,SW,219,0.0,0.0,96,0.00,,,0.41,,2013-05-24 06:02:00,
2013-05-24 02:12:00,60.0,59.0,29.71,SW,219,0.0,0.0,96,0.00,,,0.41,,2013-05-24 06:12:00,
2013-05-24 02:21:00,60.0,59.0,29.71,SW,220,0.0,0.0,96,0.00,,,0.41,,2013-05-24 06:21:00,
2013-05-24 02:32:00,60.0,59.0,29.71,SW,220,0.0,0.0,96,0.00,,,0.41,,2013-05-24 06:32:00,
2013-05-24 02:42:00,60.0,59.0,29.71,SW,220,0.0,0.0,96,0.00,,,0.41,,2013-05-24 06:42:00,
2013-05-24 02:52:00,60.0,59.0,29.70,SW,220,0.0,0.0,96,0.00,,,0.41,,2013-05-24 06:52:00,
2013-05-24 03:01:00,60.0,59.0,29.70,SW,220,0.0,0.0,97,0.00,,,0.41,,2013-05-24 07:01:00,
2013-05-24 03:11:00,60.0,59.0,29.70,SW,220,0.0,0.0,97,0.00,,,0.41,,2013-05-24 07:11:00,
2013-05-24 03:22:00,60.0,59.0,29.70,SW,220,0.0,0.0,97,0.00,,,0.41,,2013-05-24 07:22:00,
2013-05-24 03:32:00,59.0,58.0,29.70,SW,220,0.0,0.0,97,0.00,,,0.41,,2013-05-24 07:32:00,
2013-05-24 03:42:00,59.0,58.0,29.70,SW,220,0.0,0.0,97,0.00,,,0.41,,2013-05-24 07:42:00,
2013-05-24 03:52:00,59.0,58.0,29.69,SW,220,0.0,0.0,97,0.00,,,0.41,,2013-05-24 07:52:00,
2013-05-24 04:02:00,60.0,59.0,29.69,SW,219,0.0,0.0,97,0.01,,,0.42,,2013-05-24 08:02:00,
2013-05-24 04:11:00,60.0,59.0,29.69,SW,219,0.0,0.0,97,0.01,,,0.42,,2013-05-24 08:11:00,
2013-05-24 04:22:00,60.0,59.0,29.68,SW,220,0.0,0.0,97,0.01,,,0.42,,2013-05-24 08:22:00,
2013-05-24 04:33:00,60.0,59.0,29.68,SW,220,0.0,0.0,97,0.02,,,0.43,,2013-05-24 08:33:00,
2013-05-24 04:42:00,60.0,59.0,29.68,SW,220,0.0,0.0,97,0.02,,,0.43,,2013-05-24 08:42:00,
2013-05-24 04:52:00,60.0,59.0,29.68,SW,220,0.0,0.0,97,0.04,,,0.45,,2013-05-24 08:52:00,
2013-05-24 05:02:00,59.0,58.0,29.68,SW,220,0.0,2.0,97,0.04,,,0.46,,2013-05-24 09:02:00,
2013-05-24 05:11:00,59.0,58.0,29.68,SW,220,0.0,2.0,97,0.04,,,0.46,,2013-05-24 09:11:00,
2013-05-24 05:22:00,59.0,58.0,29.69,South,176,2.0,6.0,97,0.06,,,0.48,,2013-05-24 09:22:00,
2013-05-24 05:32:00,59.0,58.0,29.68,South,177,0.0,1.0,97,0.07,,,0.50,,2013-05-24 09:32:00,
2013-05-24 05:42:00,59.0,58.0,29.68,South,177,0.0,1.0,97,0.07,,,0.50,,2013-05-24 09:42:00,
2013-05-24 05:53:00,58.0,57.0,29.67,South,176,0.0,1.0,96,0.07,,,0.52,,2013-05-24 09:53:00,
2013-05-24 06:03:00,58.0,57.0,29.68,South,177,0.0,2.0,97,0.07,,,0.53,,2013-05-24 10:03:00,
2013-05-24 06:12:00,58.0,57.0,29.68,South,177,0.0,2.0,97,0.07,,,0.53,,2013-05-24 10:12:00,
2013-05-24 06:22:00,56.0,55.0,29.69,South,182,3.0,6.0,96,0.05,,,0.53,,2013-05-24 10:22:00,
2013-05-24 06:33:00,55.0,54.0,29.70,South,179,0.0,8.0,96,0.03,,,0.53,,2013-05-24 10:33:00,
2013-05-24 06:42:00,55.0,54.0,29.70,South,179,0.0,8.0,96,0.03,,,0.53,,2013-05-24 10:42:00,
2013-05-24 06:53:00,55.0,54.0,29.70,South,173,1.0,5.0,96,0.01,,,0.53,,2013-05-24 10:53:00,
2013-05-24 07:02:00,55.0,54.0,29.70,South,173,0.0,4.0,96,0.01,,,0.53,,2013-05-24 11:02:00,
2013-05-24 07:12:00,55.0,54.0,29.70,South,173,0.0,4.0,96,0.01,,,0.53,,2013-05-24 11:12:00,
2013-05-24 07:22:00,54.0,53.0,29.71,SSE,167,1.0,7.0,96,0.00,,,0.53,,2013-05-24 11:22:00,
2013-05-24 07:32:00,53.0,52.0,29.72,SSE,165,2.0,6.0,96,0.00,,,0.53,,2013-05-24 11:32:00,
2013-05-24 07:42:00,53.0,52.0,29.72,SSE,165,2.0,6.0,96,0.00,,,0.53,,2013-05-24 11:42:00,
2013-05-24 07:52:00,53.0,52.0,29.73,South,169,0.0,6.0,96,0.00,,,0.53,,2013-05-24 11:52:00,
2013-05-24 08:02:00,52.0,51.0,29.74,South,188,0.0,5.0,96,0.00,,,0.53,,2013-05-24 12:02:00,
2013-05-24 08:11:00,52.0,51.0,29.74,South,188,0.0,5.0,96,0.00,,,0.53,,2013-05-24 12:11:00,
2013-05-24 08:22:00,51.0,50.0,29.75,WSW,245,2.0,7.0,96,0.00,,,0.53,,2013-05-24 12:22:00,
2013-05-24 08:32:00,51.0,50.0,29.75,NNW,339,3.0,5.0,95,0.00,,,0.53,,2013-05-24 12:32:00,
2013-05-24 08:42:00,51.0,50.0,29.75,NNW,339,3.0,5.0,95,0.00,,,0.53,,2013-05-24 12:42:00,
2013-05-24 08:52:00,50.0,49.0,29.77,SW,224,3.0,9.0,95,0.00,,,0.53,,2013-05-24 12:52:00,
2013-05-24 09:02:00,49.0,47.0,29.79,NNW,332,6.0,8.0,93,0.01,,,0.54,,2013-05-24 13:02:00,
2013-05-24 09:11:00,49.0,47.0,29.79,NNW,332,6.0,8.0,93,0.01,,,0.54,,2013-05-24 13:11:00,
2013-05-24 09:21:00,49.0,47.0,29.80,North,11,1.0,10.0,93,0.01,,,0.54,,2013-05-24 13:21:00,
2013-05-24 09:32:00,48.0,46.0,29.80,NNW,337,4.0,10.0,92,0.02,,,0.03,,2013-05-24 13:32:00,
2013-05-24 09:42:00,48.0,46.0,29.80,NNW,337,4.0,10.0,92,0.02,,,0.03,,2013-05-24 13:42:00,
2013-05-24 09:52:00,48.0,45.0,29.81,West,277,1.0,8.0,91,0.02,,,0.03,,2013-05-24 13:52:00,
2013-05-24 10:01:00,48.0,45.0,29.82,NNW,340,5.0,10.0,89,0.02,,,0.02,,2013-05-24 14:01:00,
2013-05-24 10:11:00,48.0,45.0,29.82,NNW,340,5.0,10.0,89,0.02,,,0.02,,2013-05-24 14:11:00,
2013-05-24 10:21:00,48.0,45.0,29.83,NW,309,0.0,4.0,90,0.02,,,0.02,,2013-05-24 14:21:00,
2013-05-24 10:32:00,48.0,46.0,29.84,NNE,14,10.0,18.0,92,0.02,,,0.04,,2013-05-24 14:32:00,
2013-05-24 10:42:00,48.0,46.0,29.84,NNE,14,10.0,18.0,92,0.02,,,0.04,,2013-05-24 14:42:00,
2013-05-24 10:52:00,47.0,44.0,29.84,North,355,0.0,8.0,89,0.03,,,0.05,,2013-05-24 14:52:00,
2013-05-24 11:02:00,47.0,44.0,29.85,NW,308,3.0,8.0,89,0.05,,,0.07,,2013-05-24 15:02:00,
2013-05-24 11:11:00,47.0,44.0,29.85,NW,308,3.0,8.0,89,0.05,,,0.07,,2013-05-24 15:11:00,
2013-05-24 11:21:00,47.0,44.0,29.86,NNE,14,0.0,14.0,89,0.06,,,0.08,,2013-05-24 15:21:00,
2013-05-24 11:33:00,47.0,44.0,29.86,NNW,337,7.0,13.0,89,0.04,,,0.08,,2013-05-24 15:33:00,
2013-05-24 11:43:00,47.0,44.0,29.86,NNW,337,7.0,13.0,89,0.04,,,0.08,,2013-05-24 15:43:00,
2013-05-24 11:52:00,47.0,44.0,29.87,North,350,8.0,16.0,88,0.03,,,0.08,,2013-05-24 15:52:00,
2013-05-24 12:03:00,47.0,44.0,29.87,North,360,6.0,14.0,89,0.01,,,0.08,,2013-05-24 16:03:00,
2013-05-24 12:12:00,47.0,44.0,29.87,North,360,6.0,14.0,89,0.01,,,0.08,,2013-05-24 16:12:00,
2013-05-24 12:22:00,47.0,43.0,29.87,NNW,333,4.0,13.0,87,0.00,,,0.08,,2013-05-24 16:22:00,
2013-05-24 12:32:00,47.0,43.0,29.88,North,5,5.0,21.0,85,0.00,,,0.08,,2013-05-24 16:32:00,
2013-05-24 12:42:00,47.0,43.0,29.88,North,5,5.0,21.0,85,0.00,,,0.08,,2013-05-24 16:42:00,
2013-05-24 12:52:00,47.0,43.0,29.90,NNE,13,5.0,10.0,85,0.00,,,0.08,,2013-05-24 16:52:00,
2013-05-24 13:02:00,47.0,43.0,29.90,NNW,334,4.0,9.0,87,0.00,,,0.08,,2013-05-24 17:02:00,
2013-05-24 13:12:00,47.0,43.0,29.90,NNW,334,4.0,9.0,87,0.00,,,0.08,,2013-05-24 17:12:00,
2013-05-24 13:22:00,46.0,42.0,29.90,NNW,338,6.0,11.0,86,0.00,,,0.00,,2013-05-24 17:22:00,
2013-05-24 13:32:00,46.0,42.0,29.90,NW,313,8.0,12.0,86,0.00,,,0.00,,2013-05-24 17:32:00,
2013-05-24 13:42:00,46.0,42.0,29.90,NW,313,8.0,12.0,86,0.00,,,0.00,,2013-05-24 17:42:00,
2013-05-24 13:52:00,47.0,43.0,29.90,NW,320,6.0,14.0,86,0.00,,,0.00,,2013-05-24 17:52:00,
2013-05-24 14:01:00,47.0,42.0,29.91,NNE,15,7.0,14.0,84,0.00,,,0.00,,2013-05-24 18:01:00,
2013-05-24 14:12:00,47.0,42.0,29.91,NNE,15,7.0,14.0,84,0.00,,,0.00,,2013-05-24 18:12:00,
2013-05-24 14:22:00,47.0,43.0,29.91,NW,326,2.0,15.0,85,0.00,,,0.00,,2013-05-24 18:22:00,
2013-05-24 14:32:00,47.0,42.0,29.91,NNW,328,12.0,22.0,83,0.00,,,0.00,,2013-05-24 18:32:00,
2013-05-24 14:42:00,47.0,42.0,29.91,NNW,328,12.0,22.0,83,0.00,,,0.00,,2013-05-24 18:42:00,
2013-05-24 14:52:00,47.0,42.0,29.91,NW,315,5.0,16.0,84,0.00,,,0.00,,2013-05-24 18:52:00,
2013-05-24 15:01:00,47.0,42.0,29.92,North,11,7.0,15.0,84,0.00,,,0.00,,2013-05-24 19:01:00,
2013-05-24 15:11:00,47.0,42.0,29.92,North,11,7.0,15.0,84,0.00,,,0.00,,2013-05-24 19:11:00,
2013-05-24 15:21:00,47.0,42.0,29.92,NNE,15,7.0,14.0,83,0.00,,,0.00,,2013-05-24 19:21:00,
2013-05-24 15:32:00,47.0,42.0,29.91,North,11,7.0,16.0,84,0.00,,,0.00,,2013-05-24 19:32:00,
2013-05-24 15:42:00,47.0,42.0,29.91,North,11,7.0,16.0,84,0.00,,,0.00,,2013-05-24 19:42:00,
2013-05-24 15:52:00,47.0,42.0,29.93,NNW,334,4.0,11.0,83,0.00,,,0.00,,2013-05-24 19:52:00,
2013-05-24 16:02:00,46.0,41.0,29.93,NNW,331,4.0,14.0,82,0.00,,,0.00,,2013-05-24 20:02:00,
2013-05-24 16:12:00,46.0,41.0,29.93,NNW,331,4.0,14.0,82,0.00,,,0.00,,2013-05-24 20:12:00,
2013-05-24 16:22:00,46.0,41.0,29.93,NW,320,5.0,16.0,83,0.00,,,0.00,,2013-05-24 20:22:00,
2013-05-24 16:32:00,46.0,41.0,29.93,NNW,335,7.0,13.0,84,0.00,,,0.00,,2013-05-24 20:32:00,
2013-05-24 16:42:00,46.0,41.0,29.93,NNW,335,7.0,13.0,84,0.00,,,0.00,,2013-05-24 20:42:00,
2013-05-24 16:52:00,46.0,42.0,29.94,NNE,18,0.0,6.0,86,0.00,,,0.00,,2013-05-24 20:52:00,
2013-05-24 17:01:00,46.0,42.0,29.95,NNW,347,4.0,13.0,86,0.00,,,0.00,,2013-05-24 21:01:00,
2013-05-24 17:11:00,46.0,42.0,29.95,NNW,347,4.0,13.0,86,0.00,,,0.00,,2013-05-24 21:11:00,
2013-05-24 17:21:00,45.0,41.0,29.95,North,360,2.0,10.0,87,0.00,,,0.00,,2013-05-24 21:21:00,
2013-05-24 17:33:00,45.0,41.0,29.95,NW,322,4.0,12.0,87,0.00,,,0.00,,2013-05-24 21:33:00,
2013-05-24 17:42:00,45.0,41.0,29.95,NW,322,4.0,12.0,87,0.00,,,0.00,,2013-05-24 21:42:00,
2013-05-24 17:53:00,45.0,42.0,29.96,NE,55,7.0,15.0,88,0.00,,,0.00,,2013-05-24 21:53:00,
2013-05-24 18:03:00,45.0,42.0,29.96,NE,46,4.0,11.0,88,0.00,,,0.00,,2013-05-24 22:03:00,
2013-05-24 18:12:00,45.0,42.0,29.96,NE,46,4.0,11.0,88,0.00,,,0.00,,2013-05-24 22:12:00,
2013-05-24 18:22:00,45.0,42.0,29.96,North,360,3.0,13.0,89,0.00,,,0.00,,2013-05-24 22:22:00,
2013-05-24 18:33:00,44.0,41.0,29.96,North,5,2.0,20.0,89,0.01,,,0.01,,2013-05-24 22:33:00,
2013-05-24 18:42:00,44.0,41.0,29.96,North,5,2.0,20.0,89,0.01,,,0.01,,2013-05-24 22:42:00,
2013-05-24 18:52:00,44.0,41.0,29.96,NNE,33,3.0,18.0,89,0.01,,,0.01,,2013-05-24 22:52:00,
2013-05-24 19:02:00,44.0,41.0,29.96,NNW,342,5.0,9.0,90,0.01,,,0.01,,2013-05-24 23:02:00,
2013-05-24 19:11:00,44.0,41.0,29.96,NNW,342,5.0,9.0,90,0.01,,,0.01,,2013-05-24 23:11:00,
2013-05-24 19:22:00,44.0,41.0,29.96,NNW,342,0.0,8.0,90,0.02,,,0.02,,2013-05-24 23:22:00,
2013-05-24 19:32:00,44.0,41.0,29.96,NNW,342,1.0,4.0,90,0.01,,,0.02,,2013-05-24 23:32:00,
2013-05-24 19:42:00,44.0,41.0,29.96,NNW,342,1.0,4.0,90,0.01,,,0.02,,2013-05-24 23:42:00,
2013-05-24 19:52:00,44.0,42.0,29.96,NNW,348,0.0,8.0,91,0.01,,,0.02,,2013-05-24 23:52:00,
2013-05-24 20:01:00,44.0,42.0,29.96,NE,41,0.0,2.0,91,0.01,,,0.02,,2013-05-25 00:01:00,
2013-05-24 20:12:00,44.0,42.0,29.96,NE,41,0.0,2.0,91,0.01,,,0.02,,2013-05-25 00:12:00,
2013-05-24 20:22:00,44.0,42.0,29.96,NNW,333,2.0,7.0,91,0.00,,,0.00,,2013-05-25 00:22:00,
2013-05-24 20:32:00,44.0,42.0,29.96,NNW,344,2.0,6.0,91,0.01,,,0.01,,2013-05-25 00:32:00,
2013-05-24 20:42:00,44.0,42.0,29.96,NNW,344,2.0,6.0,91,0.01,,,0.01,,2013-05-25 00:42:00,
2013-05-24 20:52:00,44.0,42.0,29.96,ENE,65,0.0,4.0,92,0.01,,,0.01,,2013-05-25 00:52:00,
2013-05-24 21:01:00,44.0,42.0,29.97,ENE,65,0.0,0.0,92,0.02,,,0.02,,2013-05-25 01:01:00,
2013-05-24 21:11:00,44.0,42.0,29.97,ENE,65,0.0,0.0,92,0.02,,,0.02,,2013-05-25 01:11:00,
2013-05-24 21:22:00,44.0,42.0,29.98,ENE,68,0.0,2.0,93,0.03,,,0.03,,2013-05-25 01:22:00,
2013-05-24 21:32:00,44.0,42.0,29.98,SE,129,0.0,2.0,94,0.06,,,0.07,,2013-05-25 01:32:00,
2013-05-24 21:42:00,44.0,42.0,29.98,SE,129,0.0,2.0,94,0.06,,,0.07,,2013-05-25 01:42:00,
2013-05-24 21:52:00,44.0,42.0,29.97,SE,129,1.0,2.0,94,0.08,,,0.09,,2013-05-25 01:52:00,
2013-05-24 22:02:00,44.0,42.0,29.97,SE,129,0.0,0.0,94,0.09,,,0.11,,2013-05-25 02:02:00,
2013-05-24 22:12:00,44.0,42.0,29.97,SE,129,0.0,0.0,94,0.09,,,0.11,,2013-05-25 02:12:00,
2013-05-24 22:21:00,44.0,42.0,29.98,SE,143,0.0,3.0,94,0.12,,,0.15,,2013-05-25 02:21:00,
2013-05-24 22:32:00,44.0,42.0,29.98,NNE,33,0.0,5.0,94,0.09,,,0.16,,2013-05-25 02:32:00,
2013-05-24 22:42:00,44.0,42.0,29.98,NNE,33,0.0,5.0,94,0.09,,,0.16,,2013-05-25 02:42:00,
2013-05-24 22:52:00,43.0,41.0,29.99,NE,34,0.0,4.0,94,0.09,,,0.18,,2013-05-25 02:52:00,
2013-05-24 23:02:00,43.0,42.0,29.99,NNE,26,1.0,6.0,95,0.08,,,0.20,,2013-05-25 03:02:00,
2013-05-24 23:11:00,43.0,42.0,29.99,NNE,26,1.0,6.0,95,0.08,,,0.20,,2013-05-25 03:11:00,
2013-05-24 23:22:00,43.0,41.0,29.98,NW,323,4.0,11.0,94,0.01,,,0.03,,2013-05-25 03:22:00,
2013-05-24 23:32:00,43.0,41.0,29.99,North,355,1.0,12.0,94,0.02,,,0.04,,2013-05-25 03:32:00,
2013-05-24 23:43:00,43.0,41.0,29.99,North,355,1.0,12.0,94,0.02,,,0.04,,2013-05-25 03:43:00,
2013-05-24 23:53:00,43.0,41.0,29.98,North,5,1.0,6.0,93,0.05,,,0.07,,2013-05-25 03:53:00,